Time;durP1;ratioP1;P1;durP2;ratioP2;P2;SDS_P1;SDS_P2;PMS_P1;PMS_P2;Temp;Humidity;BMP_temperature;BMP_pressure;BME280_temperature;BME280_humidity;BME280_pressure;Samples;Min_cycle;Max_cycle;Signal;HPM_P1;HPM_P2
2022/03/24 00:00:26;;;;;;;0.00;0.00;;;;;;;;;;5047782;28;20052;-75
2022/03/24 00:02:56;;;;;;;0.00;0.00;;;;;;;;;;5047405;28;20044;-76
2022/03/24 00:05:25;;;;;;;0.00;0.00;;;;;;;;;;5045440;28;20427;-76
2022/03/24 00:07:55;;;;;;;0.00;0.00;;;;;;;;;;5045842;28;20063;-75
2022/03/24 00:10:25;;;;;;;0.00;0.00;;;;;;;;;;5045936;28;20044;-75
2022/03/24 00:12:55;;;;;;;0.00;0.00;;;;;;;;;;5045826;28;20051;-76
2022/03/24 00:15:25;;;;;;;0.00;0.00;;;;;;;;;;5045108;28;20056;-75
2022/03/24 00:17:55;;;;;;;0.00;0.00;;;;;;;;;;5046819;28;20059;-76
2022/03/24 00:20:25;;;;;;;0.00;0.00;;;;;;;;;;5045707;28;20416;-75
2022/03/24 00:22:55;;;;;;;0.00;0.00;;;;;;;;;;5046618;28;20531;-75
2022/03/24 00:25:25;;;;;;;0.00;0.00;;;;;;;;;;5046802;28;20053;-74
2022/03/24 00:27:55;;;;;;;0.00;0.00;;;;;;;;;;5044435;28;20056;-75
2022/03/24 00:30:26;;;;;;;0.00;0.00;;;;;;;;;;5046956;28;20411;-75
2022/03/24 00:32:59;;;;;;;0.00;0.00;;;;;;;;;;5045230;28;20504;-75
2022/03/24 00:35:30;;;;;;;0.00;0.00;;;;;;;;;;5044748;28;20771;-77
2022/03/24 00:38:01;;;;;;;0.00;0.00;;;;;;;;;;5044124;28;20072;-75
2022/03/24 00:40:32;;;;;;;0.00;0.00;;;;;;;;;;5045882;28;20496;-75
2022/03/24 00:43:02;;;;;;;0.00;0.00;;;;;;;;;;5045913;28;20048;-73
2022/03/24 00:45:32;;;;;;;0.00;0.00;;;;;;;;;;5046208;28;20056;-75
2022/03/24 00:48:04;;;;;;;;;;;;;;;;;;5045204;28;20060;-75
2022/03/24 00:50:38;;;;;;;0.00;0.00;;;;;;;;;;5045733;28;20303;-73
2022/03/24 00:53:08;;;;;;;0.00;0.00;;;;;;;;;;5046335;28;20494;-73
2022/03/24 00:55:40;;;;;;;0.00;0.00;;;;;;;;;;5048687;28;20048;-74
2022/03/24 00:58:11;;;;;;;0.00;0.00;;;;;;;;;;5025870;28;20508;-74
2022/03/24 01:00:42;;;;;;;0.00;0.00;;;;;;;;;;5025456;28;20049;-74
2022/03/24 01:03:13;;;;;;;0.00;0.00;;;;;;;;;;5025605;28;20513;-74
2022/03/24 01:05:44;;;;;;;0.00;0.00;;;;;;;;;;5025738;28;20398;-75
2022/03/24 01:08:16;;;;;;;0.00;0.00;;;;;;;;;;5026404;28;20050;-75
2022/03/24 01:10:48;;;;;;;0.00;0.00;;;;;;;;;;5024636;28;20041;-75
2022/03/24 01:13:21;;;;;;;0.00;0.00;;;;;;;;;;5025848;28;20393;-74
2022/03/24 01:15:52;;;;;;;0.00;0.00;;;;;;;;;;5022332;28;20057;-75
2022/03/24 01:18:23;;;;;;;;;;;;;;;;;;5026556;28;20053;-74
2022/03/24 01:20:54;;;;;;;0.00;0.00;;;;;;;;;;5026302;28;19929;-74
2022/03/24 01:23:26;;;;;;;;;;;;;;;;;;5023806;28;20060;-75
2022/03/24 01:25:57;;;;;;;0.00;0.00;;;;;;;;;;5025745;28;19925;-76
2022/03/24 01:28:30;;;;;;;0.00;0.00;;;;;;;;;;5026856;28;20521;-76
2022/03/24 01:31:00;;;;;;;0.00;0.00;;;;;;;;;;5029408;28;20493;-76
2022/03/24 01:33:30;;;;;;;0.00;0.00;;;;;;;;;;5010980;28;20539;-76
2022/03/24 01:36:00;;;;;;;0.00;0.00;;;;;;;;;;5029392;28;20591;-76
2022/03/24 01:38:30;;;;;;;0.00;0.00;;;;;;;;;;5026797;28;20048;-76
2022/03/24 01:40:59;;;;;;;0.00;0.00;;;;;;;;;;5029006;28;20041;-75
2022/03/24 01:43:30;;;;;;;0.00;0.00;;;;;;;;;;5026788;28;20057;-76
2022/03/24 01:46:00;;;;;;;0.00;0.00;;;;;;;;;;5026890;28;20049;-76
2022/03/24 01:48:30;;;;;;;0.00;0.00;;;;;;;;;;5027273;28;20050;-76
2022/03/24 01:51:00;;;;;;;0.00;0.00;;;;;;;;;;5029036;28;20045;-76
2022/03/24 01:53:30;;;;;;;0.00;0.00;;;;;;;;;;5027873;28;20500;-74
2022/03/24 01:56:00;;;;;;;0.00;0.00;;;;;;;;;;5026477;28;20060;-76
2022/03/24 01:58:30;;;;;;;0.00;0.00;;;;;;;;;;5026922;28;20053;-75
2022/03/24 02:01:34;;;;;;;0.00;0.00;;;;;;;;;;5028927;28;20045;-76
2022/03/24 02:04:05;;;;;;;0.00;0.00;;;;;;;;;;5027242;28;20516;-76
2022/03/24 02:06:36;;;;;;;0.00;0.00;;;;;;;;;;5026550;28;20946;-76
2022/03/24 02:09:07;;;;;;;0.00;0.00;;;;;;;;;;5028238;28;20088;-75
2022/03/24 02:11:37;;;;;;;0.00;0.00;;;;;;;;;;5026391;28;20060;-75
2022/03/24 02:14:08;;;;;;;0.00;0.00;;;;;;;;;;5028071;28;20414;-76
2022/03/24 02:16:40;;;;;;;0.00;0.00;;;;;;;;;;5026368;28;20652;-76
2022/03/24 02:19:21;;;;;;;0.00;0.00;;;;;;;;;;5026686;28;20057;-76
2022/03/24 02:21:54;;;;;;;0.00;0.00;;;;;;;;;;5028746;28;20052;-76
2022/03/24 02:24:26;;;;;;;0.00;0.00;;;;;;;;;;5027325;28;20057;-75
2022/03/24 02:26:59;;;;;;;0.00;0.00;;;;;;;;;;5029064;28;20045;-75
2022/03/24 02:29:29;;;;;;;0.00;0.00;;;;;;;;;;5027303;28;20056;-75
2022/03/24 02:31:59;;;;;;;0.00;0.00;;;;;;;;;;5028455;28;20053;-75
2022/03/24 02:34:38;;;;;;;0.00;0.00;;;;;;;;;;5028860;28;20045;-76
2022/03/24 02:37:13;;;;;;;0.00;0.00;;;;;;;;;;5027986;28;20501;-76
2022/03/24 02:39:51;;;;;;;0.00;0.00;;;;;;;;;;5027626;28;20054;-74
2022/03/24 02:42:25;;;;;;;0.00;0.00;;;;;;;;;;5028038;28;20493;-76
2022/03/24 02:45:02;;;;;;;0.00;0.00;;;;;;;;;;5011086;28;20068;-77
2022/03/24 02:47:32;;;;;;;0.00;0.00;;;;;;;;;;5027097;28;20532;-75
2022/03/24 02:50:05;;;;;;;0.00;0.00;;;;;;;;;;5028456;28;20060;-76
2022/03/24 02:52:35;;;;;;;0.00;0.00;;;;;;;;;;5028379;28;20610;-76
2022/03/24 02:55:07;;;;;;;0.00;0.00;;;;;;;;;;5028376;28;20068;-76
2022/03/24 02:57:38;;;;;;;0.00;0.00;;;;;;;;;;5027856;28;20053;-76
2022/03/24 03:00:08;;;;;;;0.00;0.00;;;;;;;;;;5026333;28;20046;-75
2022/03/24 03:02:39;;;;;;;;;;;;;;;;;;5028732;28;20041;-75
2022/03/24 03:05:10;;;;;;;0.00;0.00;;;;;;;;;;5027716;28;20304;-75
2022/03/24 03:07:40;;;;;;;0.00;0.00;;;;;;;;;;5026608;28;20042;-75
2022/03/24 03:10:10;;;;;;;0.00;0.00;;;;;;;;;;5025822;28;20069;-75
2022/03/24 03:12:44;;;;;;;0.00;0.00;;;;;;;;;;5027176;28;20052;-74
2022/03/24 03:15:14;;;;;;;0.00;0.00;;;;;;;;;;5027189;28;20053;-75
2022/03/24 03:17:44;;;;;;;0.00;0.00;;;;;;;;;;5027519;28;20045;-76
2022/03/24 03:20:14;;;;;;;0.00;0.00;;;;;;;;;;5027253;28;20045;-75
2022/03/24 03:22:44;;;;;;;0.00;0.00;;;;;;;;;;5027128;28;20420;-73
2022/03/24 03:25:14;;;;;;;0.00;0.00;;;;;;;;;;5026572;28;20740;-74
2022/03/24 03:27:44;;;;;;;0.00;0.00;;;;;;;;;;5027342;28;20042;-76
2022/03/24 03:30:14;;;;;;;0.00;0.00;;;;;;;;;;5026658;28;20489;-75
2022/03/24 03:32:44;;;;;;;0.00;0.00;;;;;;;;;;5027596;28;20048;-73
2022/03/24 03:35:15;;;;;;;;;;;;;;;;;;5027715;28;20770;-75
2022/03/24 03:37:44;;;;;;;0.00;0.00;;;;;;;;;;5027029;28;19928;-76
2022/03/24 03:40:16;;;;;;;0.00;0.00;;;;;;;;;;5027147;28;20049;-74
2022/03/24 03:42:49;;;;;;;0.00;0.00;;;;;;;;;;5026962;28;20053;-76
2022/03/24 03:45:20;;;;;;;0.00;0.00;;;;;;;;;;5027330;28;20056;-75
2022/03/24 03:47:50;;;;;;;0.00;0.00;;;;;;;;;;5026773;28;20052;-74
2022/03/24 03:50:21;;;;;;;0.00;0.00;;;;;;;;;;5025895;28;20045;-75
2022/03/24 03:52:51;;;;;;;0.10;0.10;;;;;;;;;;5027013;28;20052;-76
2022/03/24 03:55:21;;;;;;;0.00;0.00;;;;;;;;;;5027140;28;20519;-76
2022/03/24 03:57:51;;;;;;;0.00;0.00;;;;;;;;;;5026632;28;20046;-76
2022/03/24 04:03:10;;;;;;;0.00;0.00;;;;;;;;;;5026734;28;20067;-76
2022/03/24 04:05:40;;;;;;;0.00;0.00;;;;;;;;;;5027055;28;20386;-76
2022/03/24 04:08:11;;;;;;;0.00;0.00;;;;;;;;;;5026865;28;20053;-75
2022/03/24 04:10:42;;;;;;;0.00;0.00;;;;;;;;;;5026715;28;20393;-76
2022/03/24 04:13:12;;;;;;;0.00;0.00;;;;;;;;;;5026957;28;20685;-76
2022/03/24 04:15:42;;;;;;;0.00;0.00;;;;;;;;;;5026250;28;20053;-76
2022/03/24 04:18:14;;;;;;;0.00;0.00;;;;;;;;;;5026702;28;20052;-76
2022/03/24 04:20:45;;;;;;;0.00;0.00;;;;;;;;;;5026653;28;20056;-76
2022/03/24 04:23:16;;;;;;;0.00;0.00;;;;;;;;;;5026588;28;20057;-77
2022/03/24 04:25:46;;;;;;;0.00;0.00;;;;;;;;;;5026426;28;20045;-77
2022/03/24 04:28:17;;;;;;;0.00;0.00;;;;;;;;;;5025040;28;20053;-77
2022/03/24 04:30:48;;;;;;;0.00;0.00;;;;;;;;;;5026471;28;20042;-77
2022/03/24 04:33:19;;;;;;;0.00;0.00;;;;;;;;;;5026910;28;20050;-76
2022/03/24 04:35:49;;;;;;;0.00;0.00;;;;;;;;;;5026118;28;20049;-77
2022/03/24 04:38:19;;;;;;;0.00;0.00;;;;;;;;;;5026358;28;20056;-77
2022/03/24 04:40:49;;;;;;;;;;;;;;;;;;5027412;28;20382;-77
2022/03/24 04:43:21;;;;;;;0.00;0.00;;;;;;;;;;5027752;28;20407;-77
2022/03/24 04:45:51;;;;;;;0.00;0.00;;;;;;;;;;5027297;28;20520;-77
2022/03/24 04:48:21;;;;;;;0.00;0.00;;;;;;;;;;5026344;28;20417;-77
2022/03/24 04:50:51;;;;;;;0.00;0.00;;;;;;;;;;5027070;28;20045;-77
2022/03/24 04:53:22;;;;;;;0.00;0.00;;;;;;;;;;5027095;28;20056;-76
2022/03/24 04:55:51;;;;;;;0.00;0.00;;;;;;;;;;5026489;28;20049;-77
2022/03/24 04:58:21;;;;;;;0.00;0.00;;;;;;;;;;5027361;28;20125;-75
2022/03/24 05:00:51;;;;;;;0.00;0.00;;;;;;;;;;5026115;28;20057;-79
2022/03/24 05:03:21;;;;;;;0.00;0.00;;;;;;;;;;5029943;28;20045;-77
2022/03/24 05:05:52;;;;;;;0.00;0.00;;;;;;;;;;5030085;28;20041;-78
2022/03/24 05:08:21;;;;;;;0.00;0.00;;;;;;;;;;5030595;28;20054;-78
2022/03/24 05:10:51;;;;;;;0.00;0.00;;;;;;;;;;5029879;28;20056;-78
2022/03/24 05:13:21;;;;;;;0.00;0.00;;;;;;;;;;5029558;28;20076;-78
2022/03/24 05:15:52;;;;;;;0.00;0.00;;;;;;;;;;5030899;28;20052;-77
2022/03/24 05:18:24;;;;;;;0.00;0.00;;;;;;;;;;5031005;28;20056;-76
2022/03/24 05:20:54;;;;;;;0.00;0.00;;;;;;;;;;5031451;28;20503;-77
2022/03/24 05:23:24;;;;;;;0.00;0.00;;;;;;;;;;5030237;28;20068;-78
2022/03/24 05:25:54;;;;;;;0.00;0.00;;;;;;;;;;5031686;28;20045;-76
2022/03/24 05:28:25;;;;;;;0.00;0.00;;;;;;;;;;5031308;28;20416;-76
2022/03/24 05:30:55;;;;;;;0.00;0.00;;;;;;;;;;5029597;28;20056;-78
2022/03/24 05:33:26;;;;;;;0.00;0.00;;;;;;;;;;5030051;28;20061;-78
2022/03/24 05:35:58;;;;;;;0.00;0.00;;;;;;;;;;5029624;28;20524;-78
2022/03/24 05:38:28;;;;;;;0.00;0.00;;;;;;;;;;5029426;28;20048;-78
2022/03/24 05:40:59;;;;;;;0.00;0.00;;;;;;;;;;5029162;28;20140;-78
2022/03/24 05:43:30;;;;;;;0.00;0.00;;;;;;;;;;5030389;28;20037;-78
2022/03/24 05:46:00;;;;;;;0.00;0.00;;;;;;;;;;5028224;28;20296;-78
2022/03/24 05:48:32;;;;;;;0.00;0.00;;;;;;;;;;5028210;28;20492;-77
2022/03/24 05:51:35;;;;;;;0.00;0.00;;;;;;;;;;5029469;28;20061;-77
2022/03/24 05:54:05;;;;;;;0.00;0.00;;;;;;;;;;5029907;28;20057;-77
2022/03/24 05:56:36;;;;;;;0.00;0.00;;;;;;;;;;5030878;28;20049;-77
2022/03/24 05:59:07;;;;;;;0.00;0.00;;;;;;;;;;5031514;28;20046;-76
2022/03/24 06:01:39;;;;;;;0.00;0.00;;;;;;;;;;5031174;28;20057;-77
2022/03/24 06:04:13;;;;;;;0.00;0.00;;;;;;;;;;5032957;28;20049;-76
2022/03/24 06:06:44;;;;;;;0.00;0.00;;;;;;;;;;5034099;28;20061;-78
2022/03/24 06:09:15;;;;;;;0.00;0.00;;;;;;;;;;5032275;28;20041;-78
2022/03/24 06:11:45;;;;;;;0.00;0.00;;;;;;;;;;5031022;28;20053;-78
2022/03/24 06:14:14;;;;;;;0.00;0.00;;;;;;;;;;5029769;28;20054;-78
2022/03/24 06:16:44;;;;;;;0.00;0.00;;;;;;;;;;5031660;28;20053;-78
2022/03/24 06:19:15;;;;;;;0.00;0.00;;;;;;;;;;5030095;28;20417;-78
2022/03/24 06:21:45;;;;;;;0.00;0.00;;;;;;;;;;5033172;28;20048;-78
2022/03/24 06:24:15;;;;;;;0.00;0.00;;;;;;;;;;5029375;28;20042;-78
2022/03/24 06:26:44;;;;;;;0.00;0.00;;;;;;;;;;5031968;28;20057;-77
2022/03/24 06:29:15;;;;;;;0.00;0.00;;;;;;;;;;5032718;28;20060;-78
2022/03/24 06:31:45;;;;;;;0.00;0.00;;;;;;;;;;5033204;28;20053;-78
2022/03/24 06:34:16;;;;;;;0.00;0.00;;;;;;;;;;5031369;28;20124;-77
2022/03/24 06:36:47;;;;;;;0.00;0.00;;;;;;;;;;5029061;28;20080;-78
2022/03/24 06:39:17;;;;;;;0.00;0.00;;;;;;;;;;5028634;28;20053;-77
2022/03/24 06:41:48;;;;;;;0.00;0.00;;;;;;;;;;5028390;28;20060;-78
2022/03/24 06:44:20;;;;;;;0.00;0.00;;;;;;;;;;5026039;28;20535;-76
2022/03/24 06:46:51;;;;;;;0.00;0.00;;;;;;;;;;5031667;28;20045;-76
2022/03/24 06:49:21;;;;;;;0.00;0.00;;;;;;;;;;5035278;28;20477;-77
2022/03/24 06:51:52;;;;;;;0.00;0.00;;;;;;;;;;5037051;28;20056;-78
2022/03/24 06:54:22;;;;;;;0.00;0.00;;;;;;;;;;5037279;28;20053;-77
2022/03/24 06:56:52;;;;;;;0.00;0.00;;;;;;;;;;5036378;28;20053;-78
2022/03/24 06:59:22;;;;;;;0.00;0.00;;;;;;;;;;5035490;28;20288;-77
2022/03/24 07:01:52;;;;;;;0.00;0.00;;;;;;;;;;5036794;28;20045;-77
2022/03/24 07:04:22;;;;;;;0.00;0.00;;;;;;;;;;5036190;28;20041;-77
2022/03/24 07:06:52;;;;;;;0.00;0.00;;;;;;;;;;5035221;28;20500;-78
2022/03/24 07:09:22;;;;;;;0.00;0.00;;;;;;;;;;5035089;28;20531;-77
2022/03/24 07:11:52;;;;;;;0.00;0.00;;;;;;;;;;5035689;28;20053;-78
2022/03/24 07:14:23;;;;;;;0.00;0.00;;;;;;;;;;5036619;28;20064;-76
2022/03/24 07:16:53;;;;;;;0.00;0.00;;;;;;;;;;5036910;28;20051;-77
2022/03/24 07:19:22;;;;;;;0.00;0.00;;;;;;;;;;5034935;28;20060;-76
2022/03/24 07:21:52;;;;;;;0.00;0.00;;;;;;;;;;5034999;28;20049;-76
2022/03/24 07:24:25;;;;;;;0.00;0.00;;;;;;;;;;5035289;28;20049;-77
2022/03/24 07:26:55;;;;;;;0.00;0.00;;;;;;;;;;5035878;28;20054;-77
2022/03/24 07:29:24;;;;;;;0.00;0.00;;;;;;;;;;5036439;28;20041;-77
2022/03/24 07:31:55;;;;;;;0.00;0.00;;;;;;;;;;5036466;28;20061;-76
2022/03/24 07:34:25;;;;;;;0.00;0.00;;;;;;;;;;5035729;28;20048;-77
2022/03/24 07:36:55;;;;;;;0.00;0.00;;;;;;;;;;5035194;28;20048;-76
2022/03/24 07:39:25;;;;;;;0.00;0.00;;;;;;;;;;5036929;28;20061;-77
2022/03/24 07:41:55;;;;;;;0.00;0.00;;;;;;;;;;5035095;28;20050;-77
2022/03/24 07:44:25;;;;;;;0.00;0.00;;;;;;;;;;5036731;28;20060;-77
2022/03/24 07:46:55;;;;;;;0.00;0.00;;;;;;;;;;5034014;28;20065;-78
2022/03/24 07:49:26;;;;;;;0.00;0.00;;;;;;;;;;5035448;28;20050;-78
2022/03/24 07:51:56;;;;;;;0.00;0.00;;;;;;;;;;5035486;28;20072;-78
2022/03/24 07:54:56;;;;;;;0.00;0.00;;;;;;;;;;5035824;28;20053;-78
2022/03/24 07:57:30;;;;;;;0.00;0.00;;;;;;;;;;5035311;28;20049;-77
2022/03/24 08:00:01;;;;;;;0.00;0.00;;;;;;;;;;5036050;28;20056;-77
2022/03/24 08:02:43;;;;;;;0.00;0.00;;;;;;;;;;5038439;28;20054;-78
2022/03/24 08:05:13;;;;;;;0.00;0.00;;;;;;;;;;5036579;28;20053;-78
2022/03/24 08:07:43;;;;;;;0.00;0.00;;;;;;;;;;5036600;28;20049;-76
2022/03/24 08:10:13;;;;;;;0.00;0.00;;;;;;;;;;5033276;28;20052;-76
2022/03/24 08:12:43;;;;;;;0.00;0.00;;;;;;;;;;5035343;28;20409;-78
2022/03/24 08:15:13;;;;;;;0.00;0.00;;;;;;;;;;5032873;28;20053;-76
2022/03/24 08:17:43;;;;;;;0.00;0.00;;;;;;;;;;5036303;28;20045;-77
2022/03/24 08:20:13;;;;;;;0.00;0.00;;;;;;;;;;5035887;28;20042;-77
2022/03/24 08:22:43;;;;;;;0.00;0.00;;;;;;;;;;5035366;28;20052;-77
2022/03/24 08:25:15;;;;;;;0.00;0.00;;;;;;;;;;5034852;28;20053;-76
2022/03/24 08:27:44;;;;;;;0.00;0.00;;;;;;;;;;5034754;28;20057;-78
2022/03/24 08:30:15;;;;;;;0.00;0.00;;;;;;;;;;5033770;28;20061;-78
2022/03/24 08:32:45;;;;;;;0.00;0.00;;;;;;;;;;5034967;28;20049;-78
2022/03/24 08:35:15;;;;;;;0.00;0.00;;;;;;;;;;5035429;28;20049;-77
2022/03/24 08:37:45;;;;;;;0.00;0.00;;;;;;;;;;5038424;28;20049;-78
2022/03/24 08:40:15;;;;;;;0.00;0.00;;;;;;;;;;5037720;28;20049;-77
2022/03/24 08:42:45;;;;;;;0.00;0.00;;;;;;;;;;5041622;28;20053;-78
2022/03/24 08:45:16;;;;;;;0.00;0.00;;;;;;;;;;5036289;28;20049;-79
2022/03/24 08:47:45;;;;;;;0.00;0.00;;;;;;;;;;5038111;28;20064;-78
2022/03/24 08:50:16;;;;;;;0.00;0.00;;;;;;;;;;5038872;28;20041;-76
2022/03/24 08:52:46;;;;;;;0.00;0.00;;;;;;;;;;5040351;28;20041;-76
2022/03/24 08:55:16;;;;;;;0.00;0.00;;;;;;;;;;5038969;28;20052;-77
2022/03/24 08:57:46;;;;;;;0.00;0.00;;;;;;;;;;5040212;28;20041;-77
2022/03/24 09:00:17;;;;;;;0.00;0.00;;;;;;;;;;5039225;28;20052;-78
2022/03/24 09:02:49;;;;;;;0.00;0.00;;;;;;;;;;5039630;28;20073;-76
2022/03/24 09:05:20;;;;;;;0.00;0.00;;;;;;;;;;5039317;28;20064;-77
2022/03/24 09:07:50;;;;;;;0.00;0.00;;;;;;;;;;5039983;28;20053;-76
2022/03/24 09:10:22;;;;;;;0.00;0.00;;;;;;;;;;5039487;28;20072;-77
2022/03/24 09:12:52;;;;;;;0.00;0.00;;;;;;;;;;5038236;28;20053;-77
2022/03/24 09:15:22;;;;;;;0.00;0.00;;;;;;;;;;5039683;28;20527;-76
2022/03/24 09:17:53;;;;;;;0.00;0.00;;;;;;;;;;5038231;28;20415;-77
2022/03/24 09:20:25;;;;;;;0.00;0.00;;;;;;;;;;5039658;28;20049;-76
2022/03/24 09:22:55;;;;;;;0.08;0.08;;;;;;;;;;5039150;28;20555;-78
2022/03/24 09:25:25;;;;;;;0.00;0.00;;;;;;;;;;5038632;28;20052;-77
2022/03/24 09:27:55;;;;;;;0.00;0.00;;;;;;;;;;5036814;28;20607;-77
2022/03/24 09:30:25;;;;;;;0.00;0.00;;;;;;;;;;5038015;28;20045;-76
2022/03/24 09:32:55;;;;;;;0.00;0.00;;;;;;;;;;5037126;28;20042;-77
2022/03/24 09:35:25;;;;;;;0.00;0.00;;;;;;;;;;5036412;28;20412;-77
2022/03/24 09:37:55;;;;;;;0.00;0.00;;;;;;;;;;5035469;28;20046;-78
2022/03/24 09:40:25;;;;;;;0.00;0.00;;;;;;;;;;5036688;28;20052;-77
2022/03/24 09:43:00;;;;;;;0.00;0.00;;;;;;;;;;5038215;28;20037;-77
2022/03/24 09:45:30;;;;;;;0.00;0.00;;;;;;;;;;5037096;28;20045;-77
2022/03/24 09:48:02;;;;;;;0.00;0.00;;;;;;;;;;5036801;28;20042;-77
2022/03/24 09:50:34;;;;;;;;;;;;;;;;;;5036870;28;20049;-77
2022/03/24 09:53:05;;;;;;;0.00;0.00;;;;;;;;;;5035765;28;19948;-75
2022/03/24 09:55:37;;;;;;;0.00;0.00;;;;;;;;;;5033755;28;20052;-77
2022/03/24 09:58:08;;;;;;;0.00;0.00;;;;;;;;;;5035728;28;20054;-77
2022/03/24 10:00:43;;;;;;;0.00;0.00;;;;;;;;;;5037224;28;20037;-75
2022/03/24 10:03:14;;;;;;;0.00;0.00;;;;;;;;;;5035567;28;20076;-77
2022/03/24 10:05:54;;;;;;;0.00;0.00;;;;;;;;;;5034536;28;20072;-77
2022/03/24 10:08:25;;;;;;;0.00;0.00;;;;;;;;;;5033839;28;20057;-77
2022/03/24 10:11:14;;;;;;;0.00;0.00;;;;;;;;;;5031054;28;20049;-75
2022/03/24 10:13:54;;;;;;;0.00;0.00;;;;;;;;;;5030218;28;20045;-77
2022/03/24 10:16:34;;;;;;;0.00;0.00;;;;;;;;;;5029080;28;20509;-75
2022/03/24 10:19:10;;;;;;;0.00;0.00;;;;;;;;;;5029481;28;20568;-75
2022/03/24 10:21:46;;;;;;;0.00;0.00;;;;;;;;;;5029840;28;20056;-81
2022/03/24 10:24:22;;;;;;;0.00;0.00;;;;;;;;;;5029387;28;20048;-75
2022/03/24 10:27:02;;;;;;;0.00;0.00;;;;;;;;;;5028810;28;20405;-75
2022/03/24 10:29:34;;;;;;;0.00;0.00;;;;;;;;;;5028662;28;20041;-76
2022/03/24 10:32:11;;;;;;;0.00;0.00;;;;;;;;;;5027106;28;20056;-75
2022/03/24 10:34:43;;;;;;;0.00;0.00;;;;;;;;;;5028561;28;20052;-76
2022/03/24 10:37:19;;;;;;;0.00;0.00;;;;;;;;;;5028604;28;20049;-75
2022/03/24 10:40:02;;;;;;;0.00;0.00;;;;;;;;;;5028309;28;20049;-75
2022/03/24 10:42:36;;;;;;;0.00;0.00;;;;;;;;;;5027921;28;20614;-75
2022/03/24 10:45:20;;;;;;;0.00;0.00;;;;;;;;;;5028024;28;20424;-76
2022/03/24 10:48:02;;;;;;;0.00;0.00;;;;;;;;;;5027512;28;20049;-75
2022/03/24 10:50:41;;;;;;;;;;;;;;;;;;5028749;28;20045;-74
2022/03/24 10:53:16;;;;;;;0.00;0.00;;;;;;;;;;5027742;28;19921;-75
2022/03/24 10:55:58;;;;;;;0.00;0.00;;;;;;;;;;5028048;28;20046;-74
2022/03/24 10:58:39;;;;;;;0.00;0.00;;;;;;;;;;5028182;28;20409;-77
2022/03/24 11:01:14;;;;;;;0.00;0.00;;;;;;;;;;5028105;28;20050;-77
2022/03/24 11:03:45;;;;;;;0.00;0.00;;;;;;;;;;5027608;28;20080;-78
2022/03/24 11:06:17;;;;;;;0.00;0.00;;;;;;;;;;5027591;28;20080;-76
2022/03/24 11:08:53;;;;;;;0.00;0.00;;;;;;;;;;5026989;28;20049;-73
2022/03/24 11:11:24;;;;;;;0.00;0.00;;;;;;;;;;5027166;28;20033;-75
2022/03/24 11:14:00;;;;;;;0.00;0.00;;;;;;;;;;5024607;28;20049;-75
2022/03/24 11:16:33;;;;;;;0.00;0.00;;;;;;;;;;5022410;28;20389;-73
2022/03/24 11:19:15;;;;;;;0.00;0.00;;;;;;;;;;5024324;28;20057;-76
2022/03/24 11:22:14;;;;;;;0.00;0.00;;;;;;;;;;5027105;28;20049;-76
2022/03/24 11:24:47;;;;;;;0.00;0.00;;;;;;;;;;5015384;28;20053;-75
2022/03/24 11:27:19;;;;;;;0.00;0.00;;;;;;;;;;5027364;28;20405;-75
2022/03/24 11:29:49;;;;;;;0.00;0.00;;;;;;;;;;5027058;28;20041;-76
2022/03/24 11:32:20;;;;;;;0.00;0.00;;;;;;;;;;5027418;28;20054;-80
2022/03/24 11:34:54;;;;;;;0.00;0.00;;;;;;;;;;5026589;28;20049;-74
2022/03/24 11:37:25;;;;;;;0.00;0.00;;;;;;;;;;5026046;28;20045;-74
2022/03/24 11:40:17;;;;;;;0.00;0.00;;;;;;;;;;5027276;28;20060;-75
2022/03/24 11:43:12;;;;;;;0.00;0.00;;;;;;;;;;5026682;28;20037;-74
2022/03/24 11:46:02;;;;;;;0.00;0.00;;;;;;;;;;5026809;28;20504;-75
2022/03/24 11:48:33;;;;;;;0.00;0.00;;;;;;;;;;5026436;28;20045;-74
2022/03/24 11:51:20;;;;;;;0.00;0.00;;;;;;;;;;5026176;28;20303;-75
2022/03/24 11:54:04;;;;;;;0.00;0.00;;;;;;;;;;5026668;28;20050;-74
2022/03/24 11:56:35;;;;;;;0.00;0.00;;;;;;;;;;5026858;28;20057;-75
2022/03/24 11:59:07;;;;;;;0.00;0.00;;;;;;;;;;5026761;28;20046;-74
2022/03/24 12:01:37;;;;;;;0.00;0.00;;;;;;;;;;5026514;28;20157;-75
2022/03/24 12:04:12;;;;;;;0.00;0.00;;;;;;;;;;5024872;28;20057;-75
2022/03/24 12:06:43;;;;;;;0.00;0.00;;;;;;;;;;5025971;28;20041;-75
2022/03/24 12:09:16;;;;;;;0.00;0.00;;;;;;;;;;5026155;28;20050;-74
2022/03/24 12:12:05;;;;;;;0.00;0.00;;;;;;;;;;5026577;28;20049;-75
2022/03/24 12:14:42;;;;;;;0.00;0.00;;;;;;;;;;5026850;28;20056;-74
2022/03/24 12:17:23;;;;;;;0.00;0.00;;;;;;;;;;5026648;28;20049;-75
2022/03/24 12:20:01;;;;;;;0.00;0.00;;;;;;;;;;5026849;28;20037;-75
2022/03/24 12:22:36;;;;;;;0.00;0.00;;;;;;;;;;5026470;28;20052;-75
2022/03/24 12:25:06;;;;;;;0.00;0.00;;;;;;;;;;5026450;28;20053;-75
2022/03/24 12:27:56;;;;;;;0.00;0.00;;;;;;;;;;5026601;28;20046;-75
2022/03/24 12:30:27;;;;;;;0.00;0.00;;;;;;;;;;5026592;28;20056;-75
2022/03/24 12:33:08;;;;;;;0.00;0.00;;;;;;;;;;5026195;28;20821;-74
2022/03/24 12:35:48;;;;;;;0.00;0.00;;;;;;;;;;5026645;28;20413;-74
2022/03/24 12:38:36;;;;;;;0.00;0.00;;;;;;;;;;5027319;28;20464;-74
2022/03/24 12:41:06;;;;;;;0.00;0.00;;;;;;;;;;5025709;28;20045;-74
2022/03/24 12:43:49;;;;;;;0.00;0.00;;;;;;;;;;5026698;28;20033;-75
2022/03/24 12:46:37;;;;;;;0.00;0.00;;;;;;;;;;5026268;28;20080;-74
2022/03/24 12:49:16;;;;;;;0.22;0.22;;;;;;;;;;5027019;28;20520;-74
2022/03/24 12:52:02;;;;;;;0.00;0.00;;;;;;;;;;5026378;28;20049;-74
2022/03/24 12:54:42;;;;;;;0.00;0.00;;;;;;;;;;5026336;28;20050;-74
2022/03/24 12:57:21;;;;;;;0.00;0.00;;;;;;;;;;5025888;28;20050;-74
2022/03/24 12:59:52;;;;;;;0.00;0.00;;;;;;;;;;5024173;28;20045;-75
2022/03/24 13:02:25;;;;;;;0.00;0.00;;;;;;;;;;5026491;28;20053;-74
2022/03/24 13:04:56;;;;;;;0.00;0.00;;;;;;;;;;5025738;28;20037;-74
2022/03/24 13:07:28;;;;;;;0.00;0.00;;;;;;;;;;5026158;28;20058;-74
2022/03/24 13:10:17;;;;;;;0.00;0.00;;;;;;;;;;5025431;28;20429;-74
2022/03/24 13:12:50;;;;;;;0.00;0.00;;;;;;;;;;5026174;28;20500;-73
2022/03/24 13:15:21;;;;;;;0.00;0.00;;;;;;;;;;5025977;28;20052;-75
2022/03/24 13:17:54;;;;;;;0.00;0.00;;;;;;;;;;5026248;28;20049;-76
2022/03/24 13:20:27;;;;;;;0.00;0.00;;;;;;;;;;5025804;28;20044;-75
2022/03/24 13:23:02;;;;;;;0.00;0.00;;;;;;;;;;5027378;28;20500;-74
2022/03/24 13:25:33;;;;;;;0.00;0.00;;;;;;;;;;5029926;28;20108;-76
2022/03/24 13:28:04;;;;;;;0.00;0.00;;;;;;;;;;5030120;28;20049;-73
2022/03/24 13:30:37;;;;;;;0.00;0.00;;;;;;;;;;5029583;28;20049;-73
2022/03/24 13:33:11;;;;;;;0.00;0.00;;;;;;;;;;5029483;28;20046;-74
2022/03/24 13:35:49;;;;;;;0.00;0.00;;;;;;;;;;5029588;28;20053;-76
2022/03/24 13:38:22;;;;;;;0.08;0.08;;;;;;;;;;5029101;28;20057;-75
2022/03/24 13:40:57;;;;;;;0.00;0.00;;;;;;;;;;5028917;28;20489;-74
2022/03/24 13:43:28;;;;;;;0.00;0.00;;;;;;;;;;5029636;28;20515;-75
2022/03/24 13:45:58;;;;;;;0.00;0.00;;;;;;;;;;5029345;28;20050;-75
2022/03/24 13:48:28;;;;;;;0.00;0.00;;;;;;;;;;5029396;28;20060;-75
2022/03/24 13:51:05;;;;;;;0.00;0.00;;;;;;;;;;5029567;28;20386;-73
2022/03/24 13:53:35;;;;;;;0.00;0.00;;;;;;;;;;5028703;28;20045;-75
2022/03/24 13:56:05;;;;;;;0.00;0.00;;;;;;;;;;5028760;28;20060;-73
2022/03/24 13:58:36;;;;;;;0.00;0.00;;;;;;;;;;5029349;28;20060;-74
2022/03/24 14:01:10;;;;;;;0.00;0.00;;;;;;;;;;5028552;28;20056;-72
2022/03/24 14:03:45;;;;;;;0.00;0.00;;;;;;;;;;5028788;28;20404;-74
2022/03/24 14:06:18;;;;;;;0.00;0.00;;;;;;;;;;5028887;28;20056;-73
2022/03/24 14:08:53;;;;;;;0.00;0.00;;;;;;;;;;5028854;28;20052;-73
2022/03/24 14:11:31;;;;;;;0.00;0.00;;;;;;;;;;5028893;28;20493;-73
2022/03/24 14:14:11;;;;;;;0.00;0.00;;;;;;;;;;5028961;28;20045;-73
2022/03/24 14:16:43;;;;;;;0.00;0.00;;;;;;;;;;5026650;28;20061;-75
2022/03/24 14:19:17;;;;;;;0.00;0.00;;;;;;;;;;5028619;28;20533;-74
2022/03/24 14:21:55;;;;;;;0.00;0.00;;;;;;;;;;5028082;28;20493;-76
2022/03/24 14:24:35;;;;;;;0.00;0.00;;;;;;;;;;5028945;28;20049;-73
2022/03/24 14:27:27;;;;;;;0.00;0.00;;;;;;;;;;5028560;28;20428;-74
2022/03/24 14:30:12;;;;;;;0.00;0.00;;;;;;;;;;5028385;28;20127;-73
2022/03/24 14:32:44;;;;;;;0.00;0.00;;;;;;;;;;5027970;28;20041;-75
2022/03/24 14:35:17;;;;;;;0.00;0.00;;;;;;;;;;5027785;28;20042;-73
2022/03/24 14:37:49;;;;;;;0.00;0.00;;;;;;;;;;5028178;28;20045;-74
2022/03/24 14:40:33;;;;;;;0.00;0.00;;;;;;;;;;5027155;28;20037;-74
2022/03/24 14:43:16;;;;;;;0.00;0.00;;;;;;;;;;5028313;28;20081;-74
2022/03/24 14:45:48;;;;;;;0.00;0.00;;;;;;;;;;5028342;28;20050;-74
2022/03/24 14:48:19;;;;;;;0.47;0.32;;;;;;;;;;5027380;28;20049;-74
2022/03/24 14:50:52;;;;;;;0.00;0.00;;;;;;;;;;5028067;28;20049;-74
2022/03/24 14:53:24;;;;;;;0.00;0.00;;;;;;;;;;5027948;28;20053;-74
2022/03/24 14:55:54;;;;;;;0.00;0.00;;;;;;;;;;5027827;28;20049;-76
2022/03/24 14:58:24;;;;;;;0.00;0.00;;;;;;;;;;5028014;28;20057;-75
2022/03/24 15:00:53;;;;;;;0.00;0.00;;;;;;;;;;5027753;28;20871;-75
2022/03/24 15:03:24;;;;;;;0.00;0.00;;;;;;;;;;5028790;28;20564;-75
2022/03/24 15:05:54;;;;;;;0.00;0.00;;;;;;;;;;5028050;28;20048;-76
2022/03/24 15:08:23;;;;;;;0.00;0.00;;;;;;;;;;5027535;28;20405;-75
2022/03/24 15:10:54;;;;;;;0.00;0.00;;;;;;;;;;5028261;28;20041;-77
2022/03/24 15:13:23;;;;;;;0.00;0.00;;;;;;;;;;5027749;28;20056;-74
2022/03/24 15:16:03;;;;;;;0.45;0.43;;;;;;;;;;5027790;28;20064;-74
2022/03/24 15:18:37;;;;;;;0.00;0.00;;;;;;;;;;5027774;28;20077;-74
2022/03/24 15:21:07;;;;;;;0.00;0.00;;;;;;;;;;5027256;28;20517;-75